sensor_id;sensor_type;location;lat;lon;timestamp;temperature;humidity
9772;DHT22;4925;52.588;13.370;2022-10-31T00:01:33;12.10;99.90
9772;DHT22;4925;52.588;13.370;2022-10-31T00:03:59;12.10;99.90
9772;DHT22;4925;52.588;13.370;2022-10-31T00:06:25;12.10;99.90
9772;DHT22;4925;52.588;13.370;2022-10-31T00:08:56;12.10;99.90
9772;DHT22;4925;52.588;13.370;2022-10-31T00:11:22;12.00;99.90
9772;DHT22;4925;52.588;13.370;2022-10-31T00:13:48;12.00;99.90
9772;DHT22;4925;52.588;13.370;2022-10-31T00:16:18;11.90;99.90
9772;DHT22;4925;52.588;13.370;2022-10-31T00:18:48;12.00;99.90
9772;DHT22;4925;52.588;13.370;2022-10-31T00:21:15;11.80;99.90
9772;DHT22;4925;52.588;13.370;2022-10-31T00:23:40;11.80;99.90
9772;DHT22;4925;52.588;13.370;2022-10-31T00:26:06;11.80;99.90
9772;DHT22;4925;52.588;13.370;2022-10-31T00:28:32;11.80;99.90
9772;DHT22;4925;52.588;13.370;2022-10-31T00:31:02;11.80;99.90
9772;DHT22;4925;52.588;13.370;2022-10-31T00:33:28;11.80;99.90
9772;DHT22;4925;52.588;13.370;2022-10-31T00:35:54;11.80;99.90
9772;DHT22;4925;52.588;13.370;2022-10-31T00:38:20;11.80;99.90
9772;DHT22;4925;52.588;13.370;2022-10-31T00:40:46;11.80;99.90
9772;DHT22;4925;52.588;13.370;2022-10-31T00:43:12;11.80;99.90
9772;DHT22;4925;52.588;13.370;2022-10-31T00:45:37;11.80;99.90
9772;DHT22;4925;52.588;13.370;2022-10-31T00:48:03;11.90;99.90
9772;DHT22;4925;52.588;13.370;2022-10-31T00:50:29;11.70;99.90
9772;DHT22;4925;52.588;13.370;2022-10-31T00:52:55;11.70;99.90
9772;DHT22;4925;52.588;13.370;2022-10-31T00:55:22;11.70;99.90
9772;DHT22;4925;52.588;13.370;2022-10-31T00:57:47;11.70;99.90
9772;DHT22;4925;52.588;13.370;2022-10-31T01:00:14;11.70;99.90
9772;DHT22;4925;52.588;13.370;2022-10-31T01:02:40;11.70;99.90
9772;DHT22;4925;52.588;13.370;2022-10-31T01:05:06;11.70;99.90
9772;DHT22;4925;52.588;13.370;2022-10-31T01:07:31;11.60;99.90
9772;DHT22;4925;52.588;13.370;2022-10-31T01:09:57;11.60;99.90
9772;DHT22;4925;52.588;13.370;2022-10-31T01:12:22;11.60;99.90
9772;DHT22;4925;52.588;13.370;2022-10-31T01:14:48;11.60;99.90
9772;DHT22;4925;52.588;13.370;2022-10-31T01:17:13;11.60;99.90
9772;DHT22;4925;52.588;13.370;2022-10-31T01:19:39;11.60;99.90
9772;DHT22;4925;52.588;13.370;2022-10-31T01:22:05;11.70;99.90
9772;DHT22;4925;52.588;13.370;2022-10-31T01:24:31;11.60;99.90
9772;DHT22;4925;52.588;13.370;2022-10-31T01:26:57;11.80;99.90
9772;DHT22;4925;52.588;13.370;2022-10-31T01:29:22;11.70;99.90
9772;DHT22;4925;52.588;13.370;2022-10-31T01:31:48;11.80;99.90
9772;DHT22;4925;52.588;13.370;2022-10-31T01:34:16;11.80;99.90
9772;DHT22;4925;52.588;13.370;2022-10-31T01:36:43;11.80;99.90
9772;DHT22;4925;52.588;13.370;2022-10-31T01:39:14;11.90;99.90
9772;DHT22;4925;52.588;13.370;2022-10-31T01:41:46;11.90;99.90
9772;DHT22;4925;52.588;13.370;2022-10-31T01:49:20;11.80;99.90
9772;DHT22;4925;52.588;13.370;2022-10-31T01:51:51;11.70;99.90
9772;DHT22;4925;52.588;13.370;2022-10-31T01:54:20;11.70;99.90
9772;DHT22;4925;52.588;13.370;2022-10-31T01:56:50;11.70;99.90
9772;DHT22;4925;52.588;13.370;2022-10-31T01:59:19;11.70;99.90
9772;DHT22;4925;52.588;13.370;2022-10-31T02:01:46;11.80;99.90
9772;DHT22;4925;52.588;13.370;2022-10-31T02:04:12;11.80;99.90
9772;DHT22;4925;52.588;13.370;2022-10-31T02:06:43;11.80;99.90
9772;DHT22;4925;52.588;13.370;2022-10-31T02:09:10;11.90;99.90
9772;DHT22;4925;52.588;13.370;2022-10-31T02:11:38;13.80;99.90
9772;DHT22;4925;52.588;13.370;2022-10-31T02:14:04;12.00;99.90
9772;DHT22;4925;52.588;13.370;2022-10-31T02:16:29;11.90;99.90
9772;DHT22;4925;52.588;13.370;2022-10-31T02:18:56;11.90;99.90
9772;DHT22;4925;52.588;13.370;2022-10-31T02:21:31;11.90;99.90
9772;DHT22;4925;52.588;13.370;2022-10-31T02:27:11;11.80;99.90
9772;DHT22;4925;52.588;13.370;2022-10-31T02:38:15;11.60;99.90
9772;DHT22;4925;52.588;13.370;2022-10-31T02:41:19;11.50;99.90
9772;DHT22;4925;52.588;13.370;2022-10-31T02:44:10;11.40;99.90
9772;DHT22;4925;52.588;13.370;2022-10-31T02:46:39;11.40;99.90
9772;DHT22;4925;52.588;13.370;2022-10-31T02:49:23;11.40;99.90
9772;DHT22;4925;52.588;13.370;2022-10-31T02:51:52;11.30;99.90
9772;DHT22;4925;52.588;13.370;2022-10-31T02:54:23;11.30;99.90
9772;DHT22;4925;52.588;13.370;2022-10-31T02:56:51;11.40;99.90
9772;DHT22;4925;52.588;13.370;2022-10-31T02:59:19;11.50;99.90
9772;DHT22;4925;52.588;13.370;2022-10-31T03:02:04;11.70;99.90
9772;DHT22;4925;52.588;13.370;2022-10-31T03:13:14;12.00;99.90
9772;DHT22;4925;52.588;13.370;2022-10-31T03:15:45;12.00;99.90
9772;DHT22;4925;52.588;13.370;2022-10-31T03:18:29;12.00;99.90
9772;DHT22;4925;52.588;13.370;2022-10-31T03:21:01;12.00;99.90
9772;DHT22;4925;52.588;13.370;2022-10-31T03:23:30;12.00;99.90
9772;DHT22;4925;52.588;13.370;2022-10-31T03:25:58;12.10;99.90
9772;DHT22;4925;52.588;13.370;2022-10-31T03:28:33;12.00;99.90
9772;DHT22;4925;52.588;13.370;2022-10-31T03:31:00;12.10;99.90
9772;DHT22;4925;52.588;13.370;2022-10-31T03:33:29;12.00;99.90
9772;DHT22;4925;52.588;13.370;2022-10-31T03:35:57;12.00;99.90
9772;DHT22;4925;52.588;13.370;2022-10-31T03:38:26;12.00;99.90
9772;DHT22;4925;52.588;13.370;2022-10-31T03:40:52;12.00;99.90
9772;DHT22;4925;52.588;13.370;2022-10-31T03:43:26;12.10;99.90
9772;DHT22;4925;52.588;13.370;2022-10-31T03:45:53;12.10;99.90
9772;DHT22;4925;52.588;13.370;2022-10-31T03:48:20;12.10;99.90
9772;DHT22;4925;52.588;13.370;2022-10-31T03:51:11;12.10;99.90
9772;DHT22;4925;52.588;13.370;2022-10-31T03:54:07;12.10;99.90
9772;DHT22;4925;52.588;13.370;2022-10-31T03:56:46;12.10;99.90
9772;DHT22;4925;52.588;13.370;2022-10-31T03:59:34;12.10;99.90
9772;DHT22;4925;52.588;13.370;2022-10-31T04:02:05;12.10;99.90
9772;DHT22;4925;52.588;13.370;2022-10-31T04:04:33;12.00;99.90
9772;DHT22;4925;52.588;13.370;2022-10-31T04:07:00;12.10;99.90
9772;DHT22;4925;52.588;13.370;2022-10-31T04:09:27;12.00;99.90
9772;DHT22;4925;52.588;13.370;2022-10-31T04:11:56;12.00;99.90
9772;DHT22;4925;52.588;13.370;2022-10-31T04:14:25;12.00;99.90
9772;DHT22;4925;52.588;13.370;2022-10-31T04:16:51;12.00;99.90
9772;DHT22;4925;52.588;13.370;2022-10-31T04:19:17;12.00;99.90
9772;DHT22;4925;52.588;13.370;2022-10-31T04:21:43;12.60;99.90
9772;DHT22;4925;52.588;13.370;2022-10-31T04:24:09;12.00;99.90
9772;DHT22;4925;52.588;13.370;2022-10-31T04:26:34;12.00;99.90
9772;DHT22;4925;52.588;13.370;2022-10-31T04:29:00;12.00;99.90
9772;DHT22;4925;52.588;13.370;2022-10-31T04:31:27;12.00;99.90
9772;DHT22;4925;52.588;13.370;2022-10-31T04:33:52;12.00;99.90
9772;DHT22;4925;52.588;13.370;2022-10-31T04:36:18;12.00;99.90
9772;DHT22;4925;52.588;13.370;2022-10-31T04:38:44;12.00;99.90
9772;DHT22;4925;52.588;13.370;2022-10-31T04:41:09;12.00;99.90
9772;DHT22;4925;52.588;13.370;2022-10-31T04:43:35;12.00;99.90
9772;DHT22;4925;52.588;13.370;2022-10-31T04:46:01;12.00;99.90
9772;DHT22;4925;52.588;13.370;2022-10-31T04:48:27;11.90;99.90
9772;DHT22;4925;52.588;13.370;2022-10-31T04:50:52;11.90;99.90
9772;DHT22;4925;52.588;13.370;2022-10-31T04:53:18;11.90;99.90
9772;DHT22;4925;52.588;13.370;2022-10-31T04:55:43;11.90;99.90
9772;DHT22;4925;52.588;13.370;2022-10-31T04:58:09;11.90;99.90
9772;DHT22;4925;52.588;13.370;2022-10-31T05:00:34;11.90;99.90
9772;DHT22;4925;52.588;13.370;2022-10-31T05:03:00;11.90;99.90
9772;DHT22;4925;52.588;13.370;2022-10-31T05:05:28;11.90;99.90
9772;DHT22;4925;52.588;13.370;2022-10-31T05:07:55;11.90;99.90
9772;DHT22;4925;52.588;13.370;2022-10-31T05:10:23;12.00;99.90
9772;DHT22;4925;52.588;13.370;2022-10-31T05:12:53;12.00;99.90
9772;DHT22;4925;52.588;13.370;2022-10-31T05:15:21;12.80;99.90
9772;DHT22;4925;52.588;13.370;2022-10-31T05:17:47;12.00;99.90
9772;DHT22;4925;52.588;13.370;2022-10-31T05:20:14;11.90;99.90
9772;DHT22;4925;52.588;13.370;2022-10-31T05:22:48;11.90;99.90
9772;DHT22;4925;52.588;13.370;2022-10-31T05:25:14;11.90;99.90
9772;DHT22;4925;52.588;13.370;2022-10-31T05:27:41;11.90;99.90
9772;DHT22;4925;52.588;13.370;2022-10-31T05:30:08;11.90;99.90
9772;DHT22;4925;52.588;13.370;2022-10-31T05:32:41;11.90;99.90
9772;DHT22;4925;52.588;13.370;2022-10-31T05:35:08;11.80;99.90
9772;DHT22;4925;52.588;13.370;2022-10-31T05:37:35;11.80;99.90
9772;DHT22;4925;52.588;13.370;2022-10-31T05:40:04;11.80;99.90
9772;DHT22;4925;52.588;13.370;2022-10-31T05:42:31;11.80;99.90
9772;DHT22;4925;52.588;13.370;2022-10-31T05:44:56;11.70;99.90
9772;DHT22;4925;52.588;13.370;2022-10-31T05:47:22;11.80;99.90
9772;DHT22;4925;52.588;13.370;2022-10-31T05:49:48;11.70;99.90
9772;DHT22;4925;52.588;13.370;2022-10-31T05:52:13;11.70;99.90
9772;DHT22;4925;52.588;13.370;2022-10-31T05:54:39;11.70;99.90
9772;DHT22;4925;52.588;13.370;2022-10-31T05:57:05;11.80;99.90
9772;DHT22;4925;52.588;13.370;2022-10-31T05:59:31;11.70;99.90
9772;DHT22;4925;52.588;13.370;2022-10-31T06:01:56;11.80;99.90
9772;DHT22;4925;52.588;13.370;2022-10-31T06:04:22;11.70;99.90
9772;DHT22;4925;52.588;13.370;2022-10-31T06:06:47;11.70;99.90
9772;DHT22;4925;52.588;13.370;2022-10-31T06:09:13;11.70;99.90
9772;DHT22;4925;52.588;13.370;2022-10-31T06:11:39;11.70;99.90
9772;DHT22;4925;52.588;13.370;2022-10-31T06:14:05;11.70;99.90
9772;DHT22;4925;52.588;13.370;2022-10-31T06:16:31;11.80;99.90
9772;DHT22;4925;52.588;13.370;2022-10-31T06:18:56;11.80;99.90
9772;DHT22;4925;52.588;13.370;2022-10-31T06:21:22;11.70;99.90
9772;DHT22;4925;52.588;13.370;2022-10-31T06:23:48;11.80;99.90
9772;DHT22;4925;52.588;13.370;2022-10-31T06:26:13;11.80;99.90
9772;DHT22;4925;52.588;13.370;2022-10-31T06:28:39;11.80;99.90
9772;DHT22;4925;52.588;13.370;2022-10-31T06:31:05;13.70;99.90
9772;DHT22;4925;52.588;13.370;2022-10-31T06:33:30;11.90;99.90
9772;DHT22;4925;52.588;13.370;2022-10-31T06:35:56;11.90;99.90
9772;DHT22;4925;52.588;13.370;2022-10-31T06:38:22;11.90;99.90
9772;DHT22;4925;52.588;13.370;2022-10-31T06:40:47;11.90;99.90
9772;DHT22;4925;52.588;13.370;2022-10-31T06:43:13;12.00;99.90
9772;DHT22;4925;52.588;13.370;2022-10-31T06:45:40;12.00;99.90
9772;DHT22;4925;52.588;13.370;2022-10-31T06:48:06;12.00;99.90
9772;DHT22;4925;52.588;13.370;2022-10-31T06:50:31;12.10;99.90
9772;DHT22;4925;52.588;13.370;2022-10-31T06:52:58;12.10;99.90
9772;DHT22;4925;52.588;13.370;2022-10-31T06:55:25;12.20;99.90
9772;DHT22;4925;52.588;13.370;2022-10-31T06:57:55;12.90;99.90
9772;DHT22;4925;52.588;13.370;2022-10-31T07:00:21;12.20;99.90
9772;DHT22;4925;52.588;13.370;2022-10-31T07:03:02;12.30;99.90
9772;DHT22;4925;52.588;13.370;2022-10-31T07:05:28;12.30;99.90
9772;DHT22;4925;52.588;13.370;2022-10-31T07:07:56;12.40;99.90
9772;DHT22;4925;52.588;13.370;2022-10-31T07:10:22;12.50;99.90
9772;DHT22;4925;52.588;13.370;2022-10-31T07:15:14;12.70;99.90
9772;DHT22;4925;52.588;13.370;2022-10-31T07:17:40;12.80;99.90
9772;DHT22;4925;52.588;13.370;2022-10-31T07:20:06;12.90;99.90
9772;DHT22;4925;52.588;13.370;2022-10-31T07:22:33;13.10;99.90
9772;DHT22;4925;52.588;13.370;2022-10-31T07:24:59;13.10;99.90
9772;DHT22;4925;52.588;13.370;2022-10-31T07:27:24;13.20;99.90
9772;DHT22;4925;52.588;13.370;2022-10-31T07:29:50;13.30;99.90
9772;DHT22;4925;52.588;13.370;2022-10-31T07:32:16;13.40;99.90
9772;DHT22;4925;52.588;13.370;2022-10-31T07:34:41;13.50;99.90
9772;DHT22;4925;52.588;13.370;2022-10-31T07:37:07;13.70;99.90
9772;DHT22;4925;52.588;13.370;2022-10-31T07:39:32;13.60;99.90
9772;DHT22;4925;52.588;13.370;2022-10-31T07:41:58;13.60;99.90
9772;DHT22;4925;52.588;13.370;2022-10-31T07:44:24;13.70;99.90
9772;DHT22;4925;52.588;13.370;2022-10-31T07:46:49;14.20;99.90
9772;DHT22;4925;52.588;13.370;2022-10-31T07:49:15;13.90;99.90
9772;DHT22;4925;52.588;13.370;2022-10-31T07:51:41;13.90;99.90
9772;DHT22;4925;52.588;13.370;2022-10-31T07:54:06;14.20;99.90
9772;DHT22;4925;52.588;13.370;2022-10-31T07:56:32;14.00;99.90
9772;DHT22;4925;52.588;13.370;2022-10-31T07:58:58;13.90;99.90
9772;DHT22;4925;52.588;13.370;2022-10-31T08:01:23;14.00;99.90
9772;DHT22;4925;52.588;13.370;2022-10-31T08:03:49;14.00;99.90
9772;DHT22;4925;52.588;13.370;2022-10-31T08:06:14;14.00;99.90
9772;DHT22;4925;52.588;13.370;2022-10-31T08:08:40;14.10;99.90
9772;DHT22;4925;52.588;13.370;2022-10-31T08:11:06;14.10;99.90
9772;DHT22;4925;52.588;13.370;2022-10-31T08:13:31;14.10;99.90
9772;DHT22;4925;52.588;13.370;2022-10-31T08:15:57;14.10;99.90
9772;DHT22;4925;52.588;13.370;2022-10-31T08:18:29;14.20;99.90
9772;DHT22;4925;52.588;13.370;2022-10-31T08:20:54;14.20;99.90
9772;DHT22;4925;52.588;13.370;2022-10-31T08:23:20;14.20;99.90
9772;DHT22;4925;52.588;13.370;2022-10-31T08:25:46;14.20;99.90
9772;DHT22;4925;52.588;13.370;2022-10-31T08:28:13;14.20;99.90
9772;DHT22;4925;52.588;13.370;2022-10-31T08:30:40;14.30;99.90
9772;DHT22;4925;52.588;13.370;2022-10-31T08:33:13;14.30;99.90
9772;DHT22;4925;52.588;13.370;2022-10-31T08:35:39;14.30;99.90
9772;DHT22;4925;52.588;13.370;2022-10-31T08:38:05;14.20;99.90
9772;DHT22;4925;52.588;13.370;2022-10-31T08:40:32;14.20;99.90
9772;DHT22;4925;52.588;13.370;2022-10-31T08:43:06;14.30;99.90
9772;DHT22;4925;52.588;13.370;2022-10-31T08:45:34;14.30;99.90
9772;DHT22;4925;52.588;13.370;2022-10-31T08:48:01;14.30;99.90
9772;DHT22;4925;52.588;13.370;2022-10-31T08:50:28;14.40;99.90
9772;DHT22;4925;52.588;13.370;2022-10-31T08:53:03;14.50;99.90
9772;DHT22;4925;52.588;13.370;2022-10-31T08:55:29;14.60;99.90
9772;DHT22;4925;52.588;13.370;2022-10-31T08:57:58;14.70;99.90
9772;DHT22;4925;52.588;13.370;2022-10-31T09:00:24;14.80;99.90
9772;DHT22;4925;52.588;13.370;2022-10-31T09:03:01;14.80;99.90
9772;DHT22;4925;52.588;13.370;2022-10-31T09:05:27;14.90;99.90
9772;DHT22;4925;52.588;13.370;2022-10-31T09:07:58;14.90;99.90
9772;DHT22;4925;52.588;13.370;2022-10-31T09:10:25;15.10;99.90
9772;DHT22;4925;52.588;13.370;2022-10-31T09:13:01;15.20;99.90
9772;DHT22;4925;52.588;13.370;2022-10-31T09:15:27;15.20;99.90
9772;DHT22;4925;52.588;13.370;2022-10-31T09:17:53;15.20;99.90
9772;DHT22;4925;52.588;13.370;2022-10-31T09:20:19;15.20;99.90
9772;DHT22;4925;52.588;13.370;2022-10-31T09:22:46;15.30;99.90
9772;DHT22;4925;52.588;13.370;2022-10-31T09:25:12;15.40;99.90
9772;DHT22;4925;52.588;13.370;2022-10-31T09:27:38;15.40;99.90
9772;DHT22;4925;52.588;13.370;2022-10-31T09:30:04;15.50;99.90
9772;DHT22;4925;52.588;13.370;2022-10-31T09:32:30;15.50;99.90
9772;DHT22;4925;52.588;13.370;2022-10-31T09:34:56;15.60;99.90
9772;DHT22;4925;52.588;13.370;2022-10-31T09:37:21;15.60;99.90
9772;DHT22;4925;52.588;13.370;2022-10-31T09:39:47;15.70;99.90
9772;DHT22;4925;52.588;13.370;2022-10-31T09:45:07;15.70;99.90
9772;DHT22;4925;52.588;13.370;2022-10-31T09:50:54;15.90;99.90
9772;DHT22;4925;52.588;13.370;2022-10-31T09:53:27;15.90;99.90
9772;DHT22;4925;52.588;13.370;2022-10-31T09:55:55;16.00;99.90
9772;DHT22;4925;52.588;13.370;2022-10-31T09:58:29;16.10;99.90
9772;DHT22;4925;52.588;13.370;2022-10-31T10:00:59;16.20;99.90
9772;DHT22;4925;52.588;13.370;2022-10-31T10:03:41;16.30;99.90
9772;DHT22;4925;52.588;13.370;2022-10-31T10:06:22;16.40;99.90
9772;DHT22;4925;52.588;13.370;2022-10-31T10:08:49;16.40;99.90
9772;DHT22;4925;52.588;13.370;2022-10-31T10:27:47;17.90;99.90
9772;DHT22;4925;52.588;13.370;2022-10-31T10:30:18;18.20;99.90
9772;DHT22;4925;52.588;13.370;2022-10-31T10:32:53;17.70;99.90
9772;DHT22;4925;52.588;13.370;2022-10-31T10:35:22;18.40;99.90
9772;DHT22;4925;52.588;13.370;2022-10-31T10:37:56;18.50;99.90
9772;DHT22;4925;52.588;13.370;2022-10-31T10:40:27;18.70;99.90
9772;DHT22;4925;52.588;13.370;2022-10-31T10:43:34;18.80;99.90
9772;DHT22;4925;52.588;13.370;2022-10-31T10:46:03;18.90;99.90
9772;DHT22;4925;52.588;13.370;2022-10-31T10:51:58;19.10;99.90
9772;DHT22;4925;52.588;13.370;2022-10-31T11:00:14;19.30;99.90
9772;DHT22;4925;52.588;13.370;2022-10-31T11:02:41;19.40;99.90
9772;DHT22;4925;52.588;13.370;2022-10-31T11:05:36;19.40;99.90
9772;DHT22;4925;52.588;13.370;2022-10-31T11:08:00;19.40;99.90
9772;DHT22;4925;52.588;13.370;2022-10-31T11:10:25;19.40;99.90
9772;DHT22;4925;52.588;13.370;2022-10-31T11:13:05;19.40;99.90
9772;DHT22;4925;52.588;13.370;2022-10-31T11:15:36;19.40;99.90
9772;DHT22;4925;52.588;13.370;2022-10-31T11:18:02;19.30;99.90
9772;DHT22;4925;52.588;13.370;2022-10-31T11:20:31;19.30;99.90
9772;DHT22;4925;52.588;13.370;2022-10-31T11:23:18;19.20;99.90
9772;DHT22;4925;52.588;13.370;2022-10-31T11:26:05;19.20;99.90
9772;DHT22;4925;52.588;13.370;2022-10-31T11:28:33;19.20;99.90
9772;DHT22;4925;52.588;13.370;2022-10-31T11:31:07;19.20;99.90
9772;DHT22;4925;52.588;13.370;2022-10-31T11:33:35;19.10;99.90
9772;DHT22;4925;52.588;13.370;2022-10-31T11:36:04;19.20;99.90
9772;DHT22;4925;52.588;13.370;2022-10-31T11:38:43;19.30;99.90
9772;DHT22;4925;52.588;13.370;2022-10-31T11:41:11;19.30;99.90
9772;DHT22;4925;52.588;13.370;2022-10-31T11:43:38;19.30;99.90
9772;DHT22;4925;52.588;13.370;2022-10-31T11:46:20;19.30;99.90
9772;DHT22;4925;52.588;13.370;2022-10-31T11:48:52;19.30;99.90
9772;DHT22;4925;52.588;13.370;2022-10-31T11:51:25;19.30;99.90
9772;DHT22;4925;52.588;13.370;2022-10-31T11:53:54;19.30;99.90
9772;DHT22;4925;52.588;13.370;2022-10-31T11:56:20;19.40;99.90
9772;DHT22;4925;52.588;13.370;2022-10-31T11:59:02;19.60;99.90
9772;DHT22;4925;52.588;13.370;2022-10-31T12:01:31;19.60;99.90
9772;DHT22;4925;52.588;13.370;2022-10-31T12:04:03;19.80;99.90
9772;DHT22;4925;52.588;13.370;2022-10-31T12:06:36;19.80;99.90
9772;DHT22;4925;52.588;13.370;2022-10-31T12:09:33;19.70;99.90
9772;DHT22;4925;52.588;13.370;2022-10-31T12:15:05;19.80;99.90
9772;DHT22;4925;52.588;13.370;2022-10-31T12:17:39;19.90;99.90
9772;DHT22;4925;52.588;13.370;2022-10-31T12:42:01;20.80;99.90
9772;DHT22;4925;52.588;13.370;2022-10-31T12:50:26;21.30;99.90
9772;DHT22;4925;52.588;13.370;2022-10-31T13:01:11;21.30;99.90
9772;DHT22;4925;52.588;13.370;2022-10-31T13:03:53;21.20;99.90
9772;DHT22;4925;52.588;13.370;2022-10-31T13:06:29;21.20;99.90
9772;DHT22;4925;52.588;13.370;2022-10-31T13:09:05;21.10;99.90
9772;DHT22;4925;52.588;13.370;2022-10-31T13:11:37;21.20;99.90
9772;DHT22;4925;52.588;13.370;2022-10-31T13:14:19;21.10;99.90
9772;DHT22;4925;52.588;13.370;2022-10-31T13:16:47;21.10;99.90
9772;DHT22;4925;52.588;13.370;2022-10-31T13:19:25;21.00;99.90
9772;DHT22;4925;52.588;13.370;2022-10-31T13:24:57;20.80;99.90
9772;DHT22;4925;52.588;13.370;2022-10-31T13:27:29;20.70;99.90
9772;DHT22;4925;52.588;13.370;2022-10-31T13:30:02;20.60;99.90
9772;DHT22;4925;52.588;13.370;2022-10-31T13:38:19;20.40;99.90
9772;DHT22;4925;52.588;13.370;2022-10-31T13:40:52;20.40;99.90
9772;DHT22;4925;52.588;13.370;2022-10-31T13:43:25;20.40;99.90
9772;DHT22;4925;52.588;13.370;2022-10-31T13:45:55;20.30;99.90
9772;DHT22;4925;52.588;13.370;2022-10-31T13:51:03;20.20;99.90
9772;DHT22;4925;52.588;13.370;2022-10-31T13:53:38;20.00;99.90
9772;DHT22;4925;52.588;13.370;2022-10-31T13:56:19;19.90;99.90
9772;DHT22;4925;52.588;13.370;2022-10-31T14:01:23;19.60;99.90
9772;DHT22;4925;52.588;13.370;2022-10-31T14:04:21;19.50;99.90
9772;DHT22;4925;52.588;13.370;2022-10-31T14:06:57;19.30;99.90
9772;DHT22;4925;52.588;13.370;2022-10-31T14:12:26;19.10;99.90
9772;DHT22;4925;52.588;13.370;2022-10-31T14:14:56;18.80;99.90
9772;DHT22;4925;52.588;13.370;2022-10-31T14:17:25;18.70;99.90
9772;DHT22;4925;52.588;13.370;2022-10-31T14:20:19;18.60;99.90
9772;DHT22;4925;52.588;13.370;2022-10-31T14:22:46;19.20;99.90
9772;DHT22;4925;52.588;13.370;2022-10-31T14:25:35;18.20;99.90
9772;DHT22;4925;52.588;13.370;2022-10-31T14:28:03;18.20;99.90
9772;DHT22;4925;52.588;13.370;2022-10-31T14:30:33;18.10;99.90
9772;DHT22;4925;52.588;13.370;2022-10-31T14:33:02;18.00;99.90
9772;DHT22;4925;52.588;13.370;2022-10-31T14:35:46;17.90;99.90
9772;DHT22;4925;52.588;13.370;2022-10-31T14:39:00;17.90;99.90
9772;DHT22;4925;52.588;13.370;2022-10-31T14:50:06;17.40;99.90
9772;DHT22;4925;52.588;13.370;2022-10-31T14:52:36;17.20;99.90
9772;DHT22;4925;52.588;13.370;2022-10-31T14:55:06;17.20;99.90
9772;DHT22;4925;52.588;13.370;2022-10-31T14:57:36;17.10;99.90
9772;DHT22;4925;52.588;13.370;2022-10-31T15:00:07;17.00;99.90
9772;DHT22;4925;52.588;13.370;2022-10-31T15:03:12;16.80;99.90
9772;DHT22;4925;52.588;13.370;2022-10-31T15:05:56;16.70;99.90
9772;DHT22;4925;52.588;13.370;2022-10-31T15:08:43;16.60;99.90
9772;DHT22;4925;52.588;13.370;2022-10-31T15:11:15;16.50;99.90
9772;DHT22;4925;52.588;13.370;2022-10-31T15:13:53;16.40;99.90
9772;DHT22;4925;52.588;13.370;2022-10-31T15:16:24;16.30;99.90
9772;DHT22;4925;52.588;13.370;2022-10-31T15:19:05;16.20;99.90
9772;DHT22;4925;52.588;13.370;2022-10-31T15:21:33;16.10;99.90
9772;DHT22;4925;52.588;13.370;2022-10-31T15:24:00;16.00;99.90
9772;DHT22;4925;52.588;13.370;2022-10-31T15:26:38;16.00;99.90
9772;DHT22;4925;52.588;13.370;2022-10-31T15:29:15;15.90;99.90
9772;DHT22;4925;52.588;13.370;2022-10-31T15:31:54;15.80;99.90
9772;DHT22;4925;52.588;13.370;2022-10-31T15:34:38;15.80;99.90
9772;DHT22;4925;52.588;13.370;2022-10-31T15:37:09;15.70;99.90
9772;DHT22;4925;52.588;13.370;2022-10-31T15:39:36;16.00;99.90
9772;DHT22;4925;52.588;13.370;2022-10-31T15:42:01;15.60;99.90
9772;DHT22;4925;52.588;13.370;2022-10-31T15:44:36;15.50;99.90
9772;DHT22;4925;52.588;13.370;2022-10-31T15:47:12;15.40;99.90
9772;DHT22;4925;52.588;13.370;2022-10-31T15:49:42;15.30;99.90
9772;DHT22;4925;52.588;13.370;2022-10-31T15:52:17;15.20;99.90
9772;DHT22;4925;52.588;13.370;2022-10-31T15:54:48;15.20;99.90
9772;DHT22;4925;52.588;13.370;2022-10-31T15:57:14;15.20;99.90
9772;DHT22;4925;52.588;13.370;2022-10-31T15:59:48;15.10;99.90
9772;DHT22;4925;52.588;13.370;2022-10-31T16:02:26;15.20;99.90
9772;DHT22;4925;52.588;13.370;2022-10-31T16:05:00;15.10;99.90
9772;DHT22;4925;52.588;13.370;2022-10-31T16:07:28;15.10;99.90
9772;DHT22;4925;52.588;13.370;2022-10-31T16:12:20;15.10;99.90
9772;DHT22;4925;52.588;13.370;2022-10-31T16:14:46;15.10;99.90
9772;DHT22;4925;52.588;13.370;2022-10-31T16:17:14;15.10;99.90
9772;DHT22;4925;52.588;13.370;2022-10-31T16:20:01;15.10;99.90
9772;DHT22;4925;52.588;13.370;2022-10-31T16:22:34;15.10;99.90
9772;DHT22;4925;52.588;13.370;2022-10-31T16:25:14;15.10;99.90
9772;DHT22;4925;52.588;13.370;2022-10-31T16:27:48;15.10;99.90
9772;DHT22;4925;52.588;13.370;2022-10-31T16:30:46;15.00;99.90
9772;DHT22;4925;52.588;13.370;2022-10-31T16:33:33;15.00;99.90
9772;DHT22;4925;52.588;13.370;2022-10-31T16:36:13;15.00;99.90
9772;DHT22;4925;52.588;13.370;2022-10-31T16:38:46;14.90;99.90
9772;DHT22;4925;52.588;13.370;2022-10-31T16:41:12;14.90;99.90
9772;DHT22;4925;52.588;13.370;2022-10-31T16:43:39;14.80;99.90
9772;DHT22;4925;52.588;13.370;2022-10-31T16:46:04;14.80;99.90
9772;DHT22;4925;52.588;13.370;2022-10-31T16:48:30;14.80;99.90
9772;DHT22;4925;52.588;13.370;2022-10-31T16:50:55;14.80;99.90
9772;DHT22;4925;52.588;13.370;2022-10-31T16:53:21;14.70;99.90
9772;DHT22;4925;52.588;13.370;2022-10-31T16:55:57;14.70;99.90
9772;DHT22;4925;52.588;13.370;2022-10-31T16:58:25;14.70;99.90
9772;DHT22;4925;52.588;13.370;2022-10-31T17:00:53;14.70;99.90
9772;DHT22;4925;52.588;13.370;2022-10-31T17:03:19;14.70;99.90
9772;DHT22;4925;52.588;13.370;2022-10-31T17:05:45;14.60;99.90
9772;DHT22;4925;52.588;13.370;2022-10-31T17:08:11;14.60;99.90
9772;DHT22;4925;52.588;13.370;2022-10-31T17:10:38;14.60;99.90
9772;DHT22;4925;52.588;13.370;2022-10-31T17:13:06;14.50;99.90
9772;DHT22;4925;52.588;13.370;2022-10-31T17:15:41;14.50;99.90
9772;DHT22;4925;52.588;13.370;2022-10-31T17:18:13;14.40;99.90
9772;DHT22;4925;52.588;13.370;2022-10-31T17:20:38;14.40;99.90
9772;DHT22;4925;52.588;13.370;2022-10-31T17:23:04;14.40;99.90
9772;DHT22;4925;52.588;13.370;2022-10-31T17:25:30;14.30;99.90
9772;DHT22;4925;52.588;13.370;2022-10-31T17:27:57;14.30;99.90
9772;DHT22;4925;52.588;13.370;2022-10-31T17:30:23;14.20;99.90
9772;DHT22;4925;52.588;13.370;2022-10-31T17:32:49;14.20;99.90
9772;DHT22;4925;52.588;13.370;2022-10-31T17:35:17;14.20;99.90
9772;DHT22;4925;52.588;13.370;2022-10-31T17:37:43;14.20;99.90
9772;DHT22;4925;52.588;13.370;2022-10-31T17:40:11;14.10;99.90
9772;DHT22;4925;52.588;13.370;2022-10-31T17:45:04;14.10;99.90
9772;DHT22;4925;52.588;13.370;2022-10-31T17:47:30;14.00;99.90
9772;DHT22;4925;52.588;13.370;2022-10-31T17:49:56;14.00;99.90
9772;DHT22;4925;52.588;13.370;2022-10-31T17:52:21;13.90;99.90
9772;DHT22;4925;52.588;13.370;2022-10-31T17:54:47;13.90;99.90
9772;DHT22;4925;52.588;13.370;2022-10-31T17:57:13;13.90;99.90
9772;DHT22;4925;52.588;13.370;2022-10-31T17:59:39;13.90;99.90
9772;DHT22;4925;52.588;13.370;2022-10-31T18:02:05;13.90;99.90
9772;DHT22;4925;52.588;13.370;2022-10-31T18:04:34;13.90;99.90
9772;DHT22;4925;52.588;13.370;2022-10-31T18:07:00;13.90;99.90
9772;DHT22;4925;52.588;13.370;2022-10-31T18:09:26;13.90;99.90
9772;DHT22;4925;52.588;13.370;2022-10-31T18:11:51;14.40;99.90